createdAt,value
2017-09-25T00:01:17.101Z,13.10
2017-09-25T00:03:45.326Z,13.10
2017-09-25T00:06:12.786Z,13.10
2017-09-25T00:08:40.249Z,13.10
2017-09-25T00:11:07.700Z,13.10
2017-09-25T00:13:35.141Z,13.10
2017-09-25T00:16:03.345Z,13.10
2017-09-25T00:18:30.809Z,13.10
2017-09-25T00:20:58.253Z,13.10
2017-09-25T00:23:25.701Z,13.00
2017-09-25T00:25:53.917Z,13.00
2017-09-25T00:28:21.353Z,13.00
2017-09-25T00:30:49.566Z,13.00
2017-09-25T00:33:17.009Z,12.90
2017-09-25T00:35:44.470Z,12.90
2017-09-25T00:38:11.901Z,12.90
2017-09-25T00:40:39.366Z,13.00
2017-09-25T00:43:06.805Z,13.00
2017-09-25T00:45:34.254Z,12.90
2017-09-25T00:48:01.705Z,12.80
2017-09-25T00:50:29.157Z,12.90
2017-09-25T00:53:08.539Z,12.80
2017-09-25T00:55:47.878Z,12.80
2017-09-25T00:58:15.313Z,12.70
2017-09-25T01:00:54.526Z,12.60
2017-09-25T01:03:46.468Z,12.50
2017-09-25T01:06:24.596Z,12.50
2017-09-25T01:08:52.045Z,12.50
2017-09-25T01:11:19.490Z,12.50
2017-09-25T01:13:46.927Z,12.50
2017-09-25T01:16:14.369Z,12.50
2017-09-25T01:18:42.578Z,12.50
2017-09-25T01:21:10.013Z,12.50
2017-09-25T01:23:38.226Z,12.50
2017-09-25T01:26:05.660Z,12.50
2017-09-25T01:28:33.096Z,12.50
2017-09-25T01:31:00.546Z,12.50
2017-09-25T01:33:27.984Z,12.50
2017-09-25T01:35:55.430Z,12.40
2017-09-25T01:38:22.865Z,12.40
2017-09-25T01:40:50.312Z,12.40
2017-09-25T01:43:18.518Z,12.40
2017-09-25T01:45:45.982Z,12.40
2017-09-25T01:48:13.413Z,12.40
2017-09-25T01:50:40.869Z,12.40
2017-09-25T01:53:08.318Z,12.40
2017-09-25T01:55:35.778Z,12.40
2017-09-25T01:58:03.244Z,12.30
2017-09-25T02:00:30.692Z,12.30
2017-09-25T02:02:58.149Z,12.30
2017-09-25T02:05:25.598Z,12.30
2017-09-25T02:07:53.077Z,12.20
2017-09-25T02:10:21.286Z,12.30
2017-09-25T02:12:48.731Z,12.30
2017-09-25T02:15:16.181Z,12.30
2017-09-25T02:17:43.623Z,12.30
2017-09-25T02:20:11.087Z,12.30
2017-09-25T02:22:38.524Z,12.20
2017-09-25T02:25:06.736Z,12.20
2017-09-25T02:27:34.183Z,12.20
2017-09-25T02:30:01.678Z,12.20
2017-09-25T02:32:29.137Z,12.20
2017-09-25T02:34:56.601Z,12.10
2017-09-25T02:37:24.029Z,12.10
2017-09-25T02:39:51.478Z,12.00
2017-09-25T02:42:19.703Z,12.00
2017-09-25T02:44:47.157Z,12.00
2017-09-25T02:47:14.621Z,12.00
2017-09-25T02:49:42.065Z,12.00
2017-09-25T02:52:09.531Z,12.00
2017-09-25T02:54:36.974Z,11.90
2017-09-25T02:57:05.187Z,11.80
2017-09-25T02:59:32.641Z,11.80
2017-09-25T03:02:00.072Z,11.70
2017-09-25T03:04:28.275Z,11.70
2017-09-25T03:06:55.709Z,11.80
2017-09-25T03:09:23.917Z,11.80
2017-09-25T03:11:51.360Z,11.70
2017-09-25T03:14:19.577Z,11.80
2017-09-25T03:16:47.032Z,11.80
2017-09-25T03:19:14.477Z,11.80
2017-09-25T03:21:41.919Z,11.80
2017-09-25T03:24:09.366Z,11.80
2017-09-25T03:26:36.808Z,11.80
2017-09-25T03:29:04.278Z,11.70
2017-09-25T03:31:31.721Z,11.70
2017-09-25T03:33:59.167Z,11.70
2017-09-25T03:36:26.621Z,11.60
2017-09-25T03:38:54.070Z,11.50
2017-09-25T03:41:21.519Z,11.50
2017-09-25T03:43:49.721Z,11.50
2017-09-25T03:46:17.169Z,11.50
2017-09-25T03:48:45.365Z,11.50
2017-09-25T03:51:12.834Z,11.50
2017-09-25T03:53:40.281Z,11.60
2017-09-25T03:56:07.730Z,11.60
2017-09-25T03:58:35.939Z,11.50
2017-09-25T04:01:03.377Z,11.50
2017-09-25T04:03:31.594Z,11.50
2017-09-25T04:05:59.050Z,11.50
2017-09-25T04:08:26.500Z,11.50
2017-09-25T04:10:53.932Z,11.40
2017-09-25T04:13:22.152Z,11.30
2017-09-25T04:15:49.605Z,11.30
2017-09-25T04:18:17.041Z,11.30
2017-09-25T04:20:45.249Z,11.30
2017-09-25T04:23:12.685Z,11.30
2017-09-25T04:25:40.899Z,11.20
2017-09-25T04:28:08.336Z,11.20
2017-09-25T04:30:36.545Z,11.10
2017-09-25T04:33:04.009Z,11.10
2017-09-25T04:35:31.458Z,11.00
2017-09-25T04:37:58.900Z,11.00
2017-09-25T04:40:27.110Z,10.80
2017-09-25T04:42:54.554Z,10.80
2017-09-25T04:45:21.990Z,10.80
2017-09-25T04:47:49.421Z,10.90
2017-09-25T04:50:16.893Z,10.90
2017-09-25T04:52:44.341Z,10.90
2017-09-25T04:55:11.783Z,10.90
2017-09-25T04:57:39.254Z,10.90
2017-09-25T05:00:06.700Z,10.90
2017-09-25T05:02:34.174Z,10.90
2017-09-25T05:05:01.613Z,11.00
2017-09-25T05:07:29.841Z,11.00
2017-09-25T05:09:57.314Z,11.00
2017-09-25T05:12:24.771Z,11.00
2017-09-25T05:14:52.217Z,11.00
2017-09-25T05:17:19.674Z,10.90
2017-09-25T05:19:47.269Z,11.00
2017-09-25T05:22:14.713Z,10.90
2017-09-25T05:24:42.161Z,11.00
2017-09-25T05:27:09.615Z,11.00
2017-09-25T05:29:37.061Z,11.00
2017-09-25T05:32:04.492Z,11.10
2017-09-25T05:34:31.961Z,11.10
2017-09-25T05:36:59.393Z,11.10
2017-09-25T05:39:26.833Z,11.10
2017-09-25T05:41:54.276Z,11.10
2017-09-25T05:44:21.734Z,11.10
2017-09-25T05:46:49.946Z,11.10
2017-09-25T05:49:17.392Z,11.10
2017-09-25T05:51:44.832Z,11.10
2017-09-25T05:54:13.029Z,11.00
2017-09-25T05:56:40.481Z,11.00
2017-09-25T05:59:07.920Z,11.00
2017-09-25T06:01:35.378Z,11.00
2017-09-25T06:04:02.840Z,11.10
2017-09-25T06:06:30.268Z,11.10
2017-09-25T06:08:57.716Z,11.20
2017-09-25T06:11:25.178Z,11.20
2017-09-25T06:13:52.626Z,11.20
2017-09-25T06:16:20.061Z,11.20
2017-09-25T06:18:48.276Z,11.20
2017-09-25T06:21:15.706Z,11.20
2017-09-25T06:23:43.943Z,11.20
2017-09-25T06:26:11.373Z,11.20
2017-09-25T06:28:38.801Z,11.30
2017-09-25T06:31:06.244Z,11.30
2017-09-25T06:33:33.689Z,11.40
2017-09-25T06:36:01.133Z,11.40
2017-09-25T06:38:28.578Z,11.40
2017-09-25T06:40:56.796Z,11.50
2017-09-25T06:43:24.225Z,11.50
2017-09-25T06:45:51.688Z,11.50
2017-09-25T06:48:19.133Z,11.60
2017-09-25T06:50:47.335Z,11.60
2017-09-25T06:53:14.777Z,11.60
2017-09-25T06:55:42.990Z,11.60
2017-09-25T06:58:10.435Z,11.60
2017-09-25T07:00:37.877Z,11.70
2017-09-25T07:03:06.080Z,11.70
2017-09-25T07:05:33.537Z,11.70
2017-09-25T07:08:00.977Z,11.80
2017-09-25T07:10:29.181Z,11.80
2017-09-25T07:12:56.643Z,11.80
2017-09-25T07:15:24.080Z,11.80
2017-09-25T07:17:52.277Z,11.90
2017-09-25T07:20:20.499Z,11.90
2017-09-25T07:22:47.934Z,11.90
2017-09-25T07:25:15.849Z,12.00
2017-09-25T07:27:43.296Z,12.00
2017-09-25T07:30:10.748Z,12.10
2017-09-25T07:32:38.181Z,12.00
2017-09-25T07:35:06.421Z,12.10
2017-09-25T07:37:33.881Z,12.10
2017-09-25T07:40:01.306Z,12.10
2017-09-25T07:42:28.757Z,12.20
2017-09-25T07:44:56.193Z,12.20
2017-09-25T07:47:23.653Z,12.30
2017-09-25T07:49:51.086Z,12.30
2017-09-25T07:52:18.529Z,12.30
2017-09-25T07:54:45.980Z,12.40
2017-09-25T07:57:13.425Z,12.40
2017-09-25T07:59:40.869Z,12.50
2017-09-25T08:02:09.088Z,12.60
2017-09-25T08:04:36.558Z,12.60
2017-09-25T08:07:03.981Z,12.70
2017-09-25T08:09:32.181Z,12.80
2017-09-25T08:11:59.621Z,12.70
2017-09-25T08:14:27.833Z,12.80
2017-09-25T08:16:55.254Z,12.80
2017-09-25T08:19:22.685Z,12.90
2017-09-25T08:21:50.154Z,12.90
2017-09-25T08:24:17.598Z,12.90
2017-09-25T08:26:45.035Z,12.90
2017-09-25T08:29:12.490Z,12.90
2017-09-25T08:31:39.923Z,13.00
2017-09-25T08:34:07.362Z,13.00
2017-09-25T08:36:34.814Z,13.00
2017-09-25T08:39:02.246Z,13.00
2017-09-25T08:41:29.854Z,13.10
2017-09-25T08:43:57.289Z,13.10
2017-09-25T08:46:24.749Z,13.20
2017-09-25T08:48:52.208Z,13.20
2017-09-25T08:51:19.660Z,13.30
2017-09-25T08:53:47.094Z,13.30
2017-09-25T08:56:14.525Z,13.40
2017-09-25T08:58:41.960Z,13.40
2017-09-25T09:01:09.403Z,13.50
2017-09-25T09:03:38.013Z,13.50
2017-09-25T09:06:06.247Z,13.60
2017-09-25T09:08:45.642Z,13.60
2017-09-25T09:11:13.071Z,13.60
2017-09-25T09:13:40.516Z,13.70
2017-09-25T09:16:08.713Z,13.80
2017-09-25T09:18:36.158Z,13.80
2017-09-25T09:21:04.357Z,13.90
2017-09-25T09:23:31.795Z,13.90
2017-09-25T09:25:59.229Z,14.00
2017-09-25T09:28:26.658Z,14.00
2017-09-25T09:30:54.093Z,14.10
2017-09-25T09:33:22.297Z,14.30
2017-09-25T09:35:49.746Z,14.20
2017-09-25T09:38:17.181Z,14.30
2017-09-25T09:40:44.642Z,14.50
2017-09-25T09:43:12.077Z,14.70
2017-09-25T09:45:39.520Z,14.80
2017-09-25T09:48:06.973Z,14.90
2017-09-25T09:50:34.410Z,15.00
2017-09-25T09:53:02.631Z,15.30
2017-09-25T09:55:30.061Z,15.30
2017-09-25T09:57:57.497Z,15.40
2017-09-25T10:00:24.928Z,15.40
2017-09-25T10:02:52.389Z,15.50
2017-09-25T10:05:19.832Z,15.50
2017-09-25T10:07:47.253Z,15.60
2017-09-25T10:10:15.469Z,15.90
2017-09-25T10:12:42.907Z,15.80
2017-09-25T10:15:11.110Z,16.10
2017-09-25T10:17:38.552Z,16.10
2017-09-25T10:20:06.754Z,16.50
2017-09-25T10:22:34.182Z,16.50
2017-09-25T10:25:02.383Z,16.70
2017-09-25T10:27:29.821Z,16.70
2017-09-25T10:29:58.032Z,16.90
2017-09-25T10:32:25.476Z,16.90
2017-09-25T10:34:53.670Z,17.30
2017-09-25T10:37:21.109Z,17.30
2017-09-25T10:39:49.361Z,17.60
2017-09-25T10:42:16.806Z,17.60
2017-09-25T10:44:44.274Z,17.70
2017-09-25T10:47:11.753Z,17.70
2017-09-25T10:49:39.146Z,17.80
2017-09-25T10:52:07.394Z,18.00
2017-09-25T10:54:34.931Z,18.00
2017-09-25T10:57:02.393Z,18.10
2017-09-25T10:59:29.831Z,18.00
2017-09-25T11:02:00.497Z,18.00
2017-09-25T11:04:27.976Z,18.00
2017-09-25T11:06:55.462Z,18.00
2017-09-25T11:09:22.888Z,17.90
2017-09-25T11:11:50.330Z,17.90
2017-09-25T11:14:17.783Z,17.90
2017-09-25T11:16:45.212Z,17.80
2017-09-25T11:19:12.670Z,17.80
2017-09-25T11:21:40.106Z,17.80
2017-09-25T11:24:07.542Z,18.00
2017-09-25T11:26:34.973Z,18.20
2017-09-25T11:29:03.169Z,18.40
2017-09-25T11:31:30.618Z,18.40
2017-09-25T11:33:58.879Z,18.40
2017-09-25T11:36:26.327Z,18.40
2017-09-25T11:38:53.767Z,18.40
2017-09-25T11:41:21.223Z,18.30
2017-09-25T11:43:48.674Z,18.30
2017-09-25T11:46:16.122Z,18.30
2017-09-25T11:48:43.570Z,18.30
2017-09-25T11:51:11.800Z,18.20
2017-09-25T11:53:39.233Z,18.20
2017-09-25T11:56:06.669Z,18.10
2017-09-25T11:58:34.884Z,18.00
2017-09-25T12:01:02.335Z,18.00
2017-09-25T12:03:29.809Z,18.00
2017-09-25T12:05:57.259Z,17.90
2017-09-25T12:08:24.691Z,17.90
2017-09-25T12:10:52.126Z,17.80
2017-09-25T12:13:19.562Z,17.80
2017-09-25T12:15:46.995Z,17.80
2017-09-25T12:18:15.200Z,17.80
2017-09-25T12:20:42.637Z,17.80
2017-09-25T12:23:10.849Z,17.70
2017-09-25T12:25:38.301Z,17.70
2017-09-25T12:28:05.738Z,17.70
2017-09-25T12:30:33.952Z,17.70
2017-09-25T12:33:01.390Z,17.70
2017-09-25T12:35:28.850Z,17.70
2017-09-25T12:37:57.065Z,17.70
2017-09-25T12:40:24.505Z,17.70
2017-09-25T12:42:52.005Z,17.70
2017-09-25T12:45:19.433Z,17.70
2017-09-25T12:47:46.921Z,17.80
2017-09-25T12:50:14.353Z,17.80
2017-09-25T12:52:41.813Z,17.80
2017-09-25T12:55:10.029Z,17.80
2017-09-25T12:57:37.477Z,17.80
2017-09-25T13:00:04.914Z,17.80
2017-09-25T13:02:32.359Z,17.90
2017-09-25T13:04:59.797Z,17.90
2017-09-25T13:07:27.225Z,17.90
2017-09-25T13:09:54.666Z,17.90
2017-09-25T13:12:25.783Z,17.90
2017-09-25T13:14:53.252Z,17.90
2017-09-25T13:17:20.691Z,17.90
2017-09-25T13:19:48.129Z,17.90
2017-09-25T13:22:15.578Z,17.90
2017-09-25T13:24:43.028Z,17.90
2017-09-25T13:27:10.473Z,17.90
2017-09-25T13:29:38.665Z,17.90
2017-09-25T13:32:06.113Z,17.90
2017-09-25T13:34:34.323Z,17.90
2017-09-25T13:37:01.774Z,17.90
2017-09-25T13:39:32.238Z,17.90
2017-09-25T13:42:00.469Z,17.90
2017-09-25T13:44:28.677Z,17.90
2017-09-25T13:46:56.111Z,17.90
2017-09-25T13:49:24.322Z,17.90
2017-09-25T13:51:51.761Z,17.90
2017-09-25T13:54:19.973Z,17.90
2017-09-25T13:56:47.405Z,17.90
2017-09-25T14:04:20.659Z,17.90
2017-09-25T14:06:48.102Z,17.90
2017-09-25T14:09:16.308Z,17.90
2017-09-25T14:11:43.741Z,17.90
2017-09-25T14:14:11.969Z,17.90
2017-09-25T14:16:39.421Z,17.80
2017-09-25T14:19:07.687Z,17.90
2017-09-25T14:21:35.126Z,17.90
2017-09-25T14:24:03.345Z,17.90
2017-09-25T14:26:30.792Z,17.80
2017-09-25T14:28:58.235Z,17.90
2017-09-25T14:31:26.452Z,17.90
2017-09-25T14:33:53.881Z,17.90
2017-09-25T14:36:21.332Z,17.90
2017-09-25T14:38:49.540Z,17.90
2017-09-25T14:41:16.997Z,17.80
2017-09-25T14:43:44.433Z,17.90
2017-09-25T14:46:12.647Z,17.90
2017-09-25T14:48:40.073Z,17.80
2017-09-25T14:51:08.296Z,17.80
2017-09-25T14:53:35.738Z,17.80
2017-09-25T14:56:03.174Z,17.80
2017-09-25T14:58:31.379Z,17.80
2017-09-25T15:00:58.836Z,17.80
2017-09-25T15:03:26.302Z,17.80
2017-09-25T15:05:53.750Z,17.80
2017-09-25T15:08:21.946Z,17.80
2017-09-25T15:10:49.393Z,17.80
2017-09-25T15:13:17.589Z,17.70
2017-09-25T15:15:45.029Z,17.70
2017-09-25T15:18:13.242Z,17.70
2017-09-25T15:20:40.703Z,17.70
2017-09-25T15:23:08.132Z,17.70
2017-09-25T15:25:36.335Z,17.70
2017-09-25T15:28:03.778Z,17.70
2017-09-25T15:30:31.978Z,17.70
2017-09-25T15:32:59.415Z,17.70
2017-09-25T15:35:26.848Z,17.70
2017-09-25T15:37:54.310Z,17.70
2017-09-25T15:40:21.733Z,17.60
2017-09-25T15:42:49.200Z,17.70
2017-09-25T15:45:16.646Z,17.70
2017-09-25T15:47:44.114Z,17.70
2017-09-25T15:50:11.563Z,17.60
2017-09-25T15:52:39.767Z,17.60
2017-09-25T15:55:07.222Z,17.60
2017-09-25T15:57:34.682Z,17.60
2017-09-25T16:00:02.876Z,17.60
2017-09-25T16:02:30.317Z,17.60
2017-09-25T16:04:57.794Z,17.60
2017-09-25T16:07:25.225Z,17.60
2017-09-25T16:09:53.438Z,17.50
2017-09-25T16:12:20.894Z,17.60
2017-09-25T16:14:48.335Z,17.50
2017-09-25T16:17:16.544Z,17.50
2017-09-25T16:19:43.979Z,17.50
2017-09-25T16:22:12.213Z,17.50
2017-09-25T16:24:39.659Z,17.50
2017-09-25T16:27:07.102Z,17.50
2017-09-25T16:29:34.546Z,17.50
2017-09-25T16:32:02.776Z,17.50
2017-09-25T16:34:30.204Z,17.40
2017-09-25T16:36:57.645Z,17.40
2017-09-25T16:39:25.857Z,17.40
2017-09-25T16:41:53.290Z,17.40
2017-09-25T16:44:21.500Z,17.40
2017-09-25T16:46:48.941Z,17.40
2017-09-25T16:49:17.166Z,17.40
2017-09-25T16:51:44.590Z,17.40
2017-09-25T16:54:12.038Z,17.40
2017-09-25T16:56:40.287Z,17.40
2017-09-25T16:59:08.544Z,17.30
2017-09-25T17:01:35.994Z,17.30
2017-09-25T17:04:03.437Z,17.30
2017-09-25T17:06:31.669Z,17.30
2017-09-25T17:08:59.086Z,17.30
2017-09-25T17:11:26.842Z,17.30
2017-09-25T17:13:54.300Z,17.30
2017-09-25T17:16:22.561Z,17.30
2017-09-25T17:18:50.036Z,17.30
2017-09-25T17:21:18.264Z,17.20
2017-09-25T17:23:45.701Z,17.20
2017-09-25T17:26:13.170Z,17.20
2017-09-25T17:28:40.643Z,17.20
2017-09-25T17:31:08.069Z,17.20
2017-09-25T17:33:36.272Z,17.20
2017-09-25T17:36:03.718Z,17.10
2017-09-25T17:38:31.913Z,17.10
2017-09-25T17:40:59.358Z,17.10
2017-09-25T17:43:27.566Z,17.10
2017-09-25T17:45:55.005Z,17.10
2017-09-25T17:48:23.218Z,17.00
2017-09-25T17:50:50.666Z,17.00
2017-09-25T17:53:18.133Z,17.00
2017-09-25T17:55:45.565Z,16.90
2017-09-25T17:58:13.782Z,16.90
2017-09-25T18:00:41.223Z,16.80
2017-09-25T18:03:08.674Z,16.80
2017-09-25T18:05:36.091Z,16.80
2017-09-25T18:08:03.525Z,16.80
2017-09-25T18:10:30.966Z,16.70
2017-09-25T18:12:59.164Z,16.70
2017-09-25T18:15:26.610Z,16.70
2017-09-25T18:17:54.822Z,16.70
2017-09-25T18:20:22.293Z,16.70
2017-09-25T18:22:49.784Z,16.70
2017-09-25T18:25:17.213Z,16.70
2017-09-25T18:27:44.867Z,16.70
2017-09-25T18:30:12.352Z,16.70
2017-09-25T18:32:39.814Z,16.60
2017-09-25T18:35:07.261Z,16.60
2017-09-25T18:37:34.694Z,16.60
2017-09-25T18:40:02.902Z,16.60
2017-09-25T18:42:30.349Z,16.60
2017-09-25T18:44:57.793Z,16.50
2017-09-25T18:47:26.029Z,16.50
2017-09-25T18:49:53.466Z,16.50
2017-09-25T18:52:20.910Z,16.50
2017-09-25T18:54:48.360Z,16.50
2017-09-25T18:57:16.553Z,16.50
2017-09-25T18:59:43.992Z,16.50
2017-09-25T19:02:11.429Z,16.40
2017-09-25T19:04:38.860Z,16.40
2017-09-25T19:07:06.298Z,16.40
2017-09-25T19:09:33.730Z,16.30
2017-09-25T19:12:01.246Z,16.30
2017-09-25T19:14:29.523Z,16.30
2017-09-25T19:16:57.000Z,16.30
2017-09-25T19:19:24.476Z,16.30
2017-09-25T19:21:51.938Z,16.20
2017-09-25T19:24:19.373Z,16.20
2017-09-25T19:26:46.818Z,16.20
2017-09-25T19:29:15.035Z,16.10
2017-09-25T19:31:42.474Z,16.10
2017-09-25T19:34:10.021Z,16.10
2017-09-25T19:36:38.222Z,15.90
2017-09-25T19:39:05.677Z,16.00
2017-09-25T19:41:33.112Z,15.90
2017-09-25T19:44:01.405Z,15.90
2017-09-25T19:46:29.594Z,15.90
2017-09-25T19:49:15.692Z,15.90
2017-09-25T19:51:43.125Z,15.90
2017-09-25T19:54:14.205Z,15.90
2017-09-25T19:56:45.183Z,15.80
2017-09-25T19:59:12.625Z,15.80
2017-09-25T20:01:40.061Z,15.70
2017-09-25T20:04:07.526Z,15.60
2017-09-25T20:06:34.957Z,15.60
2017-09-25T20:09:03.182Z,15.60
2017-09-25T20:11:30.630Z,15.60
2017-09-25T20:13:59.473Z,15.60
2017-09-25T20:16:42.710Z,15.60
2017-09-25T20:19:10.182Z,15.60
2017-09-25T20:21:37.640Z,15.60
2017-09-25T20:24:05.074Z,15.60
2017-09-25T20:26:32.541Z,15.60
2017-09-25T20:28:59.981Z,15.60
2017-09-25T20:31:27.437Z,15.60
2017-09-25T20:33:54.894Z,15.60
2017-09-25T20:36:22.361Z,15.60
2017-09-25T20:38:49.833Z,15.60
2017-09-25T20:41:33.080Z,15.60
2017-09-25T20:44:00.541Z,15.60
2017-09-25T20:46:28.069Z,15.50
2017-09-25T20:48:55.533Z,15.50
2017-09-25T20:51:22.954Z,15.50
2017-09-25T20:53:50.398Z,15.40
2017-09-25T20:56:17.828Z,15.50
2017-09-25T20:58:45.280Z,15.40
2017-09-25T21:01:12.715Z,15.40
2017-09-25T21:03:40.184Z,15.40
2017-09-25T21:06:08.414Z,15.40
2017-09-25T21:08:35.869Z,15.40
2017-09-25T21:11:03.317Z,15.30
2017-09-25T21:13:30.765Z,15.30
2017-09-25T21:15:58.213Z,15.30
2017-09-25T21:18:26.445Z,15.20
2017-09-25T21:20:53.880Z,15.20
2017-09-25T21:23:21.329Z,15.20
2017-09-25T21:25:50.222Z,15.10
2017-09-25T21:28:17.674Z,15.10
2017-09-25T21:30:45.877Z,14.90
2017-09-25T21:33:13.329Z,14.90
2017-09-25T21:35:40.778Z,14.90
2017-09-25T21:38:08.986Z,14.70
2017-09-25T21:40:36.434Z,14.70
2017-09-25T21:43:03.868Z,14.70
2017-09-25T21:45:31.314Z,14.70
2017-09-25T21:48:01.883Z,14.70
2017-09-25T21:50:34.065Z,14.70
2017-09-25T21:53:01.497Z,14.60
2017-09-25T21:55:28.948Z,14.60
2017-09-25T21:57:56.381Z,14.60
2017-09-25T22:00:23.828Z,14.60
2017-09-25T22:02:51.347Z,14.60
2017-09-25T22:05:18.818Z,14.50
2017-09-25T22:07:47.022Z,14.50
2017-09-25T22:10:15.420Z,14.50
2017-09-25T22:12:42.847Z,14.50
2017-09-25T22:15:11.094Z,14.50
2017-09-25T22:17:40.187Z,14.50
2017-09-25T22:20:08.217Z,14.50
2017-09-25T22:22:36.042Z,14.50
2017-09-25T22:25:03.738Z,14.50
2017-09-25T22:27:31.427Z,14.40
2017-09-25T22:29:59.892Z,14.40
2017-09-25T22:32:29.089Z,14.40
2017-09-25T22:34:57.465Z,14.40
2017-09-25T22:37:25.510Z,14.40
2017-09-25T22:39:53.026Z,14.30
2017-09-25T22:42:37.042Z,14.30
2017-09-25T22:45:04.490Z,14.20
2017-09-25T22:47:31.925Z,14.30
2017-09-25T22:49:59.377Z,14.20
2017-09-25T22:52:26.803Z,14.20
2017-09-25T22:54:55.013Z,14.20
2017-09-25T22:57:22.438Z,14.20
2017-09-25T22:59:49.894Z,14.20
2017-09-25T23:02:17.322Z,14.20
2017-09-25T23:05:02.624Z,14.20
2017-09-25T23:07:30.070Z,14.20
2017-09-25T23:09:59.074Z,14.20
2017-09-25T23:12:26.533Z,14.20
2017-09-25T23:14:53.962Z,14.20
2017-09-25T23:17:21.398Z,14.20
2017-09-25T23:19:49.592Z,14.20
2017-09-25T23:22:17.035Z,14.20
2017-09-25T23:24:45.233Z,14.20
2017-09-25T23:27:12.671Z,14.20
2017-09-25T23:29:41.422Z,14.20
2017-09-25T23:32:08.863Z,14.10
2017-09-25T23:34:36.325Z,14.10
2017-09-25T23:37:03.773Z,14.10
2017-09-25T23:39:31.221Z,14.10
2017-09-25T23:41:59.425Z,14.10
2017-09-25T23:44:26.877Z,14.10
2017-09-25T23:46:54.313Z,14.10
2017-09-25T23:49:21.768Z,14.10
2017-09-25T23:51:49.213Z,14.10
2017-09-25T23:54:16.650Z,14.10
2017-09-25T23:56:44.092Z,14.10
2017-09-25T23:59:11.537Z,14.10
